sensor_id;sensor_type;location;lat;lon;timestamp;temperature;humidity
70244;DHT22;57634;51.136;17.024;2023-05-10T00:01:46;11.20;52.40
70244;DHT22;57634;51.136;17.024;2023-05-10T00:04:47;11.20;52.60
70244;DHT22;57634;51.136;17.024;2023-05-10T00:07:48;11.20;52.70
70244;DHT22;57634;51.136;17.024;2023-05-10T00:10:49;11.10;52.80
70244;DHT22;57634;51.136;17.024;2023-05-10T00:13:50;11.10;53.00
70244;DHT22;57634;51.136;17.024;2023-05-10T00:16:51;11.10;53.10
70244;DHT22;57634;51.136;17.024;2023-05-10T00:19:52;11.00;53.20
70244;DHT22;57634;51.136;17.024;2023-05-10T00:22:53;11.00;53.40
70244;DHT22;57634;51.136;17.024;2023-05-10T00:25:56;10.90;53.50
70244;DHT22;57634;51.136;17.024;2023-05-10T00:28:57;10.90;53.70
70244;DHT22;57634;51.136;17.024;2023-05-10T00:32:25;10.90;53.80
70244;DHT22;57634;51.136;17.024;2023-05-10T00:35:26;10.80;54.00
70244;DHT22;57634;51.136;17.024;2023-05-10T00:38:28;10.80;54.30
70244;DHT22;57634;51.136;17.024;2023-05-10T00:41:29;10.80;54.50
70244;DHT22;57634;51.136;17.024;2023-05-10T00:44:33;10.70;54.60
70244;DHT22;57634;51.136;17.024;2023-05-10T00:47:35;10.70;54.80
70244;DHT22;57634;51.136;17.024;2023-05-10T00:50:38;10.60;55.00
70244;DHT22;57634;51.136;17.024;2023-05-10T00:53:41;10.60;55.10
70244;DHT22;57634;51.136;17.024;2023-05-10T00:56:42;10.50;55.30
70244;DHT22;57634;51.136;17.024;2023-05-10T00:59:50;10.50;55.50
70244;DHT22;57634;51.136;17.024;2023-05-10T01:02:53;10.50;55.80
70244;DHT22;57634;51.136;17.024;2023-05-10T01:06:22;10.40;55.90
70244;DHT22;57634;51.136;17.024;2023-05-10T01:09:24;10.30;56.20
70244;DHT22;57634;51.136;17.024;2023-05-10T01:12:27;10.30;56.40
70244;DHT22;57634;51.136;17.024;2023-05-10T01:15:28;10.20;56.70
70244;DHT22;57634;51.136;17.024;2023-05-10T01:18:30;10.20;56.90
70244;DHT22;57634;51.136;17.024;2023-05-10T01:38:17;10.00;58.00
70244;DHT22;57634;51.136;17.024;2023-05-10T01:41:28;9.90;58.10
70244;DHT22;57634;51.136;17.024;2023-05-10T01:45:07;9.90;58.30
70244;DHT22;57634;51.136;17.024;2023-05-10T01:48:11;9.80;58.60
70244;DHT22;57634;51.136;17.024;2023-05-10T01:51:18;9.80;58.80
70244;DHT22;57634;51.136;17.024;2023-05-10T01:54:22;9.80;58.90
70244;DHT22;57634;51.136;17.024;2023-05-10T01:57:29;9.80;59.00
70244;DHT22;57634;51.136;17.024;2023-05-10T02:00:33;9.70;59.10
70244;DHT22;57634;51.136;17.024;2023-05-10T02:03:36;9.70;59.30
70244;DHT22;57634;51.136;17.024;2023-05-10T02:07:06;9.70;59.30
70244;DHT22;57634;51.136;17.024;2023-05-10T02:10:09;9.70;59.50
70244;DHT22;57634;51.136;17.024;2023-05-10T02:13:11;9.70;59.60
70244;DHT22;57634;51.136;17.024;2023-05-10T02:16:14;9.70;59.80
70244;DHT22;57634;51.136;17.024;2023-05-10T02:19:18;9.70;59.90
70244;DHT22;57634;51.136;17.024;2023-05-10T02:22:21;9.60;59.90
70244;DHT22;57634;51.136;17.024;2023-05-10T02:25:24;9.60;59.90
70244;DHT22;57634;51.136;17.024;2023-05-10T02:28:27;9.60;60.00
70244;DHT22;57634;51.136;17.024;2023-05-10T02:31:31;9.60;60.00
70244;DHT22;57634;51.136;17.024;2023-05-10T02:34:33;9.60;60.10
70244;DHT22;57634;51.136;17.024;2023-05-10T02:37:36;9.60;60.20
70244;DHT22;57634;51.136;17.024;2023-05-10T02:41:05;9.60;60.20
70244;DHT22;57634;51.136;17.024;2023-05-10T02:44:09;9.50;60.30
70244;DHT22;57634;51.136;17.024;2023-05-10T02:47:11;9.50;60.40
70244;DHT22;57634;51.136;17.024;2023-05-10T02:50:13;9.50;60.50
70244;DHT22;57634;51.136;17.024;2023-05-10T02:53:26;9.50;60.50
70244;DHT22;57634;51.136;17.024;2023-05-10T02:56:33;9.50;60.70
70244;DHT22;57634;51.136;17.024;2023-05-10T02:59:35;9.50;60.70
70244;DHT22;57634;51.136;17.024;2023-05-10T03:02:37;9.50;60.70
70244;DHT22;57634;51.136;17.024;2023-05-10T03:05:38;9.40;60.80
70244;DHT22;57634;51.136;17.024;2023-05-10T03:09:07;9.50;60.90
70244;DHT22;57634;51.136;17.024;2023-05-10T03:19:32;9.50;60.90
70244;DHT22;57634;51.136;17.024;2023-05-10T03:21:52;9.50;60.80
70244;DHT22;57634;51.136;17.024;2023-05-10T03:25:21;9.50;60.70
70244;DHT22;57634;51.136;17.024;2023-05-10T03:28:24;9.60;60.80
70244;DHT22;57634;51.136;17.024;2023-05-10T03:31:28;9.60;60.70
70244;DHT22;57634;51.136;17.024;2023-05-10T03:34:30;9.70;60.70
70244;DHT22;57634;51.136;17.024;2023-05-10T03:37:34;9.80;60.50
70244;DHT22;57634;51.136;17.024;2023-05-10T03:40:36;9.90;60.30
70244;DHT22;57634;51.136;17.024;2023-05-10T03:43:38;9.90;60.10
70244;DHT22;57634;51.136;17.024;2023-05-10T03:46:39;10.10;60.00
70244;DHT22;57634;51.136;17.024;2023-05-10T03:49:40;10.20;59.70
70244;DHT22;57634;51.136;17.024;2023-05-10T03:52:42;10.40;59.40
70244;DHT22;57634;51.136;17.024;2023-05-10T03:55:44;10.50;58.90
70244;DHT22;57634;51.136;17.024;2023-05-10T03:58:45;10.70;58.70
70244;DHT22;57634;51.136;17.024;2023-05-10T04:01:46;10.90;58.30
70244;DHT22;57634;51.136;17.024;2023-05-10T04:05:13;11.00;57.80
70244;DHT22;57634;51.136;17.024;2023-05-10T04:08:14;11.30;57.20
70244;DHT22;57634;51.136;17.024;2023-05-10T04:11:17;11.50;56.60
70244;DHT22;57634;51.136;17.024;2023-05-10T04:14:18;11.70;56.10
70244;DHT22;57634;51.136;17.024;2023-05-10T04:17:19;12.00;55.40
70244;DHT22;57634;51.136;17.024;2023-05-10T04:20:21;12.20;54.90
70244;DHT22;57634;51.136;17.024;2023-05-10T04:23:22;12.50;54.30
70244;DHT22;57634;51.136;17.024;2023-05-10T04:26:24;12.80;53.20
70244;DHT22;57634;51.136;17.024;2023-05-10T04:29:26;13.00;52.70
70244;DHT22;57634;51.136;17.024;2023-05-10T04:32:28;13.40;51.90
70244;DHT22;57634;51.136;17.024;2023-05-10T04:35:30;13.90;51.20
70244;DHT22;57634;51.136;17.024;2023-05-10T04:38:31;14.30;50.00
70244;DHT22;57634;51.136;17.024;2023-05-10T04:41:32;14.70;48.60
70244;DHT22;57634;51.136;17.024;2023-05-10T04:44:33;15.30;47.80
70244;DHT22;57634;51.136;17.024;2023-05-10T04:48:02;15.90;46.60
70244;DHT22;57634;51.136;17.024;2023-05-10T04:51:03;16.70;44.60
70244;DHT22;57634;51.136;17.024;2023-05-10T04:54:07;17.60;43.20
70244;DHT22;57634;51.136;17.024;2023-05-10T04:57:08;18.60;41.70
70244;DHT22;57634;51.136;17.024;2023-05-10T05:00:10;19.90;40.00
70244;DHT22;57634;51.136;17.024;2023-05-10T05:03:12;21.10;38.00
70244;DHT22;57634;51.136;17.024;2023-05-10T05:06:13;22.40;35.70
70244;DHT22;57634;51.136;17.024;2023-05-10T05:09:14;23.40;33.30
70244;DHT22;57634;51.136;17.024;2023-05-10T05:12:15;24.20;30.60
70244;DHT22;57634;51.136;17.024;2023-05-10T05:15:16;24.70;30.20
70244;DHT22;57634;51.136;17.024;2023-05-10T05:18:17;25.50;29.60
70244;DHT22;57634;51.136;17.024;2023-05-10T05:21:19;26.30;28.00
70244;DHT22;57634;51.136;17.024;2023-05-10T05:24:22;26.60;27.20
70244;DHT22;57634;51.136;17.024;2023-05-10T05:27:24;26.80;26.90
70244;DHT22;57634;51.136;17.024;2023-05-10T05:30:54;27.40;26.20
70244;DHT22;57634;51.136;17.024;2023-05-10T05:33:55;28.10;25.50
70244;DHT22;57634;51.136;17.024;2023-05-10T05:36:57;28.40;24.20
70244;DHT22;57634;51.136;17.024;2023-05-10T05:39:58;28.50;24.50
70244;DHT22;57634;51.136;17.024;2023-05-10T05:43:02;28.80;24.10
70244;DHT22;57634;51.136;17.024;2023-05-10T05:46:03;29.20;23.90
70244;DHT22;57634;51.136;17.024;2023-05-10T05:49:05;29.30;23.20
70244;DHT22;57634;51.136;17.024;2023-05-10T05:52:06;29.70;23.40
70244;DHT22;57634;51.136;17.024;2023-05-10T05:55:08;30.20;23.00
70244;DHT22;57634;51.136;17.024;2023-05-10T05:58:09;30.90;22.70
70244;DHT22;57634;51.136;17.024;2023-05-10T06:01:10;31.40;21.90
70244;DHT22;57634;51.136;17.024;2023-05-10T06:04:11;31.50;21.70
70244;DHT22;57634;51.136;17.024;2023-05-10T06:07:13;31.80;21.50
70244;DHT22;57634;51.136;17.024;2023-05-10T06:10:14;32.00;21.00
70244;DHT22;57634;51.136;17.024;2023-05-10T06:13:41;32.10;20.80
70244;DHT22;57634;51.136;17.024;2023-05-10T06:16:43;31.80;20.40
70244;DHT22;57634;51.136;17.024;2023-05-10T06:19:44;31.60;20.60
70244;DHT22;57634;51.136;17.024;2023-05-10T06:22:45;31.60;20.50
70244;DHT22;57634;51.136;17.024;2023-05-10T06:25:47;31.30;20.60
70244;DHT22;57634;51.136;17.024;2023-05-10T06:28:48;30.90;20.80
70244;DHT22;57634;51.136;17.024;2023-05-10T06:31:50;30.90;21.00
70244;DHT22;57634;51.136;17.024;2023-05-10T06:34:51;30.90;20.90
70244;DHT22;57634;51.136;17.024;2023-05-10T06:37:52;31.30;20.90
70244;DHT22;57634;51.136;17.024;2023-05-10T06:40:54;31.30;20.70
70244;DHT22;57634;51.136;17.024;2023-05-10T06:43:55;31.20;20.70
70244;DHT22;57634;51.136;17.024;2023-05-10T06:46:56;31.40;20.70
70244;DHT22;57634;51.136;17.024;2023-05-10T06:49:58;31.60;20.70
70244;DHT22;57634;51.136;17.024;2023-05-10T06:53:00;31.90;20.80
70244;DHT22;57634;51.136;17.024;2023-05-10T06:56:28;32.20;20.50
70244;DHT22;57634;51.136;17.024;2023-05-10T06:59:29;32.10;20.10
70244;DHT22;57634;51.136;17.024;2023-05-10T07:02:30;32.00;20.20
70244;DHT22;57634;51.136;17.024;2023-05-10T07:05:32;31.80;20.40
70244;DHT22;57634;51.136;17.024;2023-05-10T07:08:33;32.20;20.40
70244;DHT22;57634;51.136;17.024;2023-05-10T07:11:35;33.00;20.60
70244;DHT22;57634;51.136;17.024;2023-05-10T07:14:38;34.00;20.00
70244;DHT22;57634;51.136;17.024;2023-05-10T07:17:39;34.30;19.10
70244;DHT22;57634;51.136;17.024;2023-05-10T07:20:40;34.10;19.30
70244;DHT22;57634;51.136;17.024;2023-05-10T07:23:41;33.90;19.10
70244;DHT22;57634;51.136;17.024;2023-05-10T07:26:43;33.50;19.60
70244;DHT22;57634;51.136;17.024;2023-05-10T07:29:45;33.20;19.50
70244;DHT22;57634;51.136;17.024;2023-05-10T07:32:46;32.90;20.10
70244;DHT22;57634;51.136;17.024;2023-05-10T07:35:48;32.90;20.20
70244;DHT22;57634;51.136;17.024;2023-05-10T07:38:49;33.20;20.30
70244;DHT22;57634;51.136;17.024;2023-05-10T07:42:16;33.60;20.20
70244;DHT22;57634;51.136;17.024;2023-05-10T07:45:17;33.80;19.60
70244;DHT22;57634;51.136;17.024;2023-05-10T07:48:19;33.10;19.90
70244;DHT22;57634;51.136;17.024;2023-05-10T07:51:20;32.80;20.30
70244;DHT22;57634;51.136;17.024;2023-05-10T07:54:22;32.50;20.70
70244;DHT22;57634;51.136;17.024;2023-05-10T07:57:23;32.20;20.80
70244;DHT22;57634;51.136;17.024;2023-05-10T08:00:24;32.00;21.30
70244;DHT22;57634;51.136;17.024;2023-05-10T08:03:26;32.10;21.30
70244;DHT22;57634;51.136;17.024;2023-05-10T08:06:27;31.60;21.20
70244;DHT22;57634;51.136;17.024;2023-05-10T08:09:30;31.00;21.70
70244;DHT22;57634;51.136;17.024;2023-05-10T08:12:31;30.60;22.10
70244;DHT22;57634;51.136;17.024;2023-05-10T08:15:32;30.50;22.40
70244;DHT22;57634;51.136;17.024;2023-05-10T08:18:33;30.30;22.40
70244;DHT22;57634;51.136;17.024;2023-05-10T08:21:34;30.00;22.80
70244;DHT22;57634;51.136;17.024;2023-05-10T08:25:07;29.90;23.10
70244;DHT22;57634;51.136;17.024;2023-05-10T08:28:09;30.00;23.10
70244;DHT22;57634;51.136;17.024;2023-05-10T08:31:11;30.30;23.00
70244;DHT22;57634;51.136;17.024;2023-05-10T08:34:12;30.30;22.70
70244;DHT22;57634;51.136;17.024;2023-05-10T08:37:14;30.00;22.80
70244;DHT22;57634;51.136;17.024;2023-05-10T08:40:15;29.70;23.20
70244;DHT22;57634;51.136;17.024;2023-05-10T08:43:16;29.80;22.90
70244;DHT22;57634;51.136;17.024;2023-05-10T08:46:20;29.70;23.20
70244;DHT22;57634;51.136;17.024;2023-05-10T08:49:23;29.70;23.30
70244;DHT22;57634;51.136;17.024;2023-05-10T08:52:27;30.10;23.30
70244;DHT22;57634;51.136;17.024;2023-05-10T08:55:29;30.60;22.90
70244;DHT22;57634;51.136;17.024;2023-05-10T08:58:31;31.20;22.90
70244;DHT22;57634;51.136;17.024;2023-05-10T09:01:58;31.60;22.00
70244;DHT22;57634;51.136;17.024;2023-05-10T09:05:00;31.40;22.10
70244;DHT22;57634;51.136;17.024;2023-05-10T09:08:02;31.60;22.10
70244;DHT22;57634;51.136;17.024;2023-05-10T09:11:03;31.80;22.10
70244;DHT22;57634;51.136;17.024;2023-05-10T09:14:04;32.10;21.60
70244;DHT22;57634;51.136;17.024;2023-05-10T09:17:06;32.30;21.40
70244;DHT22;57634;51.136;17.024;2023-05-10T09:20:08;32.20;21.40
70244;DHT22;57634;51.136;17.024;2023-05-10T09:23:09;31.80;21.50
70244;DHT22;57634;51.136;17.024;2023-05-10T09:26:10;31.70;21.80
70244;DHT22;57634;51.136;17.024;2023-05-10T09:29:12;31.90;21.70
70244;DHT22;57634;51.136;17.024;2023-05-10T09:32:14;31.70;21.40
70244;DHT22;57634;51.136;17.024;2023-05-10T09:35:17;30.90;22.00
70244;DHT22;57634;51.136;17.024;2023-05-10T09:38:19;30.00;23.00
70244;DHT22;57634;51.136;17.024;2023-05-10T09:41:48;29.20;23.30
70244;DHT22;57634;51.136;17.024;2023-05-10T09:44:49;28.20;24.30
70244;DHT22;57634;51.136;17.024;2023-05-10T09:47:51;26.80;25.30
70244;DHT22;57634;51.136;17.024;2023-05-10T09:50:58;25.60;26.50
70244;DHT22;57634;51.136;17.024;2023-05-10T09:54:09;24.90;27.40
70244;DHT22;57634;51.136;17.024;2023-05-10T10:00:23;23.80;28.60
70244;DHT22;57634;51.136;17.024;2023-05-10T10:03:24;23.30;29.20
70244;DHT22;57634;51.136;17.024;2023-05-10T10:06:59;22.80;30.00
70244;DHT22;57634;51.136;17.024;2023-05-10T10:10:01;22.30;31.20
70244;DHT22;57634;51.136;17.024;2023-05-10T10:13:04;22.10;31.50
70244;DHT22;57634;51.136;17.024;2023-05-10T10:16:06;22.00;31.80
70244;DHT22;57634;51.136;17.024;2023-05-10T10:19:08;21.80;32.20
70244;DHT22;57634;51.136;17.024;2023-05-10T10:22:09;21.70;32.50
70244;DHT22;57634;51.136;17.024;2023-05-10T10:25:15;21.90;32.60
70244;DHT22;57634;51.136;17.024;2023-05-10T10:28:24;22.00;32.40
70244;DHT22;57634;51.136;17.024;2023-05-10T10:35:08;21.90;31.80
70244;DHT22;57634;51.136;17.024;2023-05-10T10:38:12;21.70;32.60
70244;DHT22;57634;51.136;17.024;2023-05-10T10:44:33;21.50;33.20
70244;DHT22;57634;51.136;17.024;2023-05-10T10:47:35;21.50;33.20
70244;DHT22;57634;51.136;17.024;2023-05-10T10:50:44;21.40;33.70
70244;DHT22;57634;51.136;17.024;2023-05-10T10:53:48;21.40;34.00
70244;DHT22;57634;51.136;17.024;2023-05-10T10:57:18;21.30;33.90
70244;DHT22;57634;51.136;17.024;2023-05-10T11:00:27;21.30;33.90
70244;DHT22;57634;51.136;17.024;2023-05-10T11:03:29;21.30;34.10
70244;DHT22;57634;51.136;17.024;2023-05-10T11:06:31;21.30;34.40
70244;DHT22;57634;51.136;17.024;2023-05-10T11:09:39;21.20;34.30
70244;DHT22;57634;51.136;17.024;2023-05-10T11:15:53;21.00;34.60
70244;DHT22;57634;51.136;17.024;2023-05-10T11:19:02;20.90;35.00
70244;DHT22;57634;51.136;17.024;2023-05-10T11:25:43;20.90;36.00
70244;DHT22;57634;51.136;17.024;2023-05-10T11:28:47;21.10;35.50
70244;DHT22;57634;51.136;17.024;2023-05-10T11:31:50;21.30;35.00
70244;DHT22;57634;51.136;17.024;2023-05-10T11:34:52;21.30;34.30
70244;DHT22;57634;51.136;17.024;2023-05-10T11:37:53;21.30;34.50
70244;DHT22;57634;51.136;17.024;2023-05-10T11:40:54;21.40;34.60
70244;DHT22;57634;51.136;17.024;2023-05-10T11:43:57;21.40;34.20
70244;DHT22;57634;51.136;17.024;2023-05-10T11:47:00;21.30;34.50
70244;DHT22;57634;51.136;17.024;2023-05-10T11:50:02;21.20;34.80
70244;DHT22;57634;51.136;17.024;2023-05-10T11:53:32;21.20;35.00
70244;DHT22;57634;51.136;17.024;2023-05-10T11:56:34;21.00;35.10
70244;DHT22;57634;51.136;17.024;2023-05-10T11:59:36;21.00;35.40
70244;DHT22;57634;51.136;17.024;2023-05-10T12:02:38;21.00;35.40
70244;DHT22;57634;51.136;17.024;2023-05-10T12:05:39;21.00;35.20
70244;DHT22;57634;51.136;17.024;2023-05-10T12:08:47;21.00;35.40
70244;DHT22;57634;51.136;17.024;2023-05-10T12:11:55;21.00;35.30
70244;DHT22;57634;51.136;17.024;2023-05-10T12:15:02;21.00;35.30
70244;DHT22;57634;51.136;17.024;2023-05-10T12:18:04;21.00;35.20
70244;DHT22;57634;51.136;17.024;2023-05-10T12:21:32;21.10;35.10
70244;DHT22;57634;51.136;17.024;2023-05-10T12:24:35;21.00;34.80
70244;DHT22;57634;51.136;17.024;2023-05-10T12:27:38;20.90;35.00
70244;DHT22;57634;51.136;17.024;2023-05-10T12:30:41;20.70;35.10
70244;DHT22;57634;51.136;17.024;2023-05-10T12:33:44;20.70;35.50
70244;DHT22;57634;51.136;17.024;2023-05-10T12:36:50;20.60;35.70
70244;DHT22;57634;51.136;17.024;2023-05-10T12:39:51;20.50;35.80
70244;DHT22;57634;51.136;17.024;2023-05-10T12:42:53;20.60;36.00
70244;DHT22;57634;51.136;17.024;2023-05-10T12:45:54;20.60;35.90
70244;DHT22;57634;51.136;17.024;2023-05-10T12:48:55;20.60;35.90
70244;DHT22;57634;51.136;17.024;2023-05-10T12:51:57;20.70;35.90
70244;DHT22;57634;51.136;17.024;2023-05-10T12:54:59;20.80;35.70
70244;DHT22;57634;51.136;17.024;2023-05-10T12:58:27;20.90;35.60
70244;DHT22;57634;51.136;17.024;2023-05-10T13:01:28;20.90;35.30
70244;DHT22;57634;51.136;17.024;2023-05-10T13:04:29;21.00;35.40
70244;DHT22;57634;51.136;17.024;2023-05-10T13:07:31;21.10;34.90
70244;DHT22;57634;51.136;17.024;2023-05-10T13:10:32;21.20;34.70
70244;DHT22;57634;51.136;17.024;2023-05-10T13:13:34;21.20;34.40
70244;DHT22;57634;51.136;17.024;2023-05-10T13:16:35;21.20;34.60
70244;DHT22;57634;51.136;17.024;2023-05-10T13:19:36;21.00;34.70
70244;DHT22;57634;51.136;17.024;2023-05-10T13:22:37;21.00;34.90
70244;DHT22;57634;51.136;17.024;2023-05-10T13:25:39;20.90;35.00
70244;DHT22;57634;51.136;17.024;2023-05-10T13:28:40;20.90;34.80
70244;DHT22;57634;51.136;17.024;2023-05-10T13:31:42;21.00;34.80
70244;DHT22;57634;51.136;17.024;2023-05-10T13:34:43;21.00;34.20
70244;DHT22;57634;51.136;17.024;2023-05-10T13:37:44;21.10;34.20
70244;DHT22;57634;51.136;17.024;2023-05-10T13:41:14;21.20;34.30
70244;DHT22;57634;51.136;17.024;2023-05-10T13:44:15;21.30;34.10
70244;DHT22;57634;51.136;17.024;2023-05-10T13:47:17;21.40;33.90
70244;DHT22;57634;51.136;17.024;2023-05-10T13:50:19;21.30;33.80
70244;DHT22;57634;51.136;17.024;2023-05-10T13:53:20;21.30;33.70
70244;DHT22;57634;51.136;17.024;2023-05-10T13:56:22;21.30;33.70
70244;DHT22;57634;51.136;17.024;2023-05-10T13:59:23;21.30;33.50
70244;DHT22;57634;51.136;17.024;2023-05-10T14:02:24;21.40;33.50
70244;DHT22;57634;51.136;17.024;2023-05-10T14:05:28;21.40;33.60
70244;DHT22;57634;51.136;17.024;2023-05-10T14:08:29;21.30;33.60
70244;DHT22;57634;51.136;17.024;2023-05-10T14:11:30;21.30;33.60
70244;DHT22;57634;51.136;17.024;2023-05-10T14:14:31;21.30;33.50
70244;DHT22;57634;51.136;17.024;2023-05-10T14:17:32;21.20;33.50
70244;DHT22;57634;51.136;17.024;2023-05-10T14:20:33;21.20;33.40
70244;DHT22;57634;51.136;17.024;2023-05-10T14:24:02;21.10;33.50
70244;DHT22;57634;51.136;17.024;2023-05-10T14:27:04;21.00;33.80
70244;DHT22;57634;51.136;17.024;2023-05-10T14:30:07;21.00;33.80
70244;DHT22;57634;51.136;17.024;2023-05-10T14:33:10;21.00;33.80
70244;DHT22;57634;51.136;17.024;2023-05-10T14:36:11;21.00;33.90
70244;DHT22;57634;51.136;17.024;2023-05-10T14:39:13;21.00;33.90
70244;DHT22;57634;51.136;17.024;2023-05-10T14:42:15;21.10;34.00
70244;DHT22;57634;51.136;17.024;2023-05-10T14:45:16;21.20;34.00
70244;DHT22;57634;51.136;17.024;2023-05-10T14:48:18;21.20;33.70
70244;DHT22;57634;51.136;17.024;2023-05-10T14:51:19;21.20;33.70
70244;DHT22;57634;51.136;17.024;2023-05-10T14:54:23;21.20;33.40
70244;DHT22;57634;51.136;17.024;2023-05-10T14:57:24;21.20;33.50
70244;DHT22;57634;51.136;17.024;2023-05-10T15:00:25;21.20;33.60
70244;DHT22;57634;51.136;17.024;2023-05-10T15:03:53;21.20;33.60
70244;DHT22;57634;51.136;17.024;2023-05-10T15:06:54;21.30;33.30
70244;DHT22;57634;51.136;17.024;2023-05-10T15:10:00;21.20;33.20
70244;DHT22;57634;51.136;17.024;2023-05-10T15:13:03;21.20;33.30
70244;DHT22;57634;51.136;17.024;2023-05-10T15:16:04;21.20;33.20
70244;DHT22;57634;51.136;17.024;2023-05-10T15:19:06;21.20;33.30
70244;DHT22;57634;51.136;17.024;2023-05-10T15:22:07;21.10;33.30
70244;DHT22;57634;51.136;17.024;2023-05-10T15:25:09;21.10;33.40
70244;DHT22;57634;51.136;17.024;2023-05-10T15:28:10;21.00;33.40
70244;DHT22;57634;51.136;17.024;2023-05-10T15:31:12;21.10;33.40
70244;DHT22;57634;51.136;17.024;2023-05-10T15:34:13;21.10;33.30
70244;DHT22;57634;51.136;17.024;2023-05-10T15:37:15;21.10;33.10
70244;DHT22;57634;51.136;17.024;2023-05-10T15:40:16;21.20;33.10
70244;DHT22;57634;51.136;17.024;2023-05-10T15:43:44;21.20;33.00
70244;DHT22;57634;51.136;17.024;2023-05-10T15:46:46;21.20;33.10
70244;DHT22;57634;51.136;17.024;2023-05-10T15:49:47;21.20;33.00
70244;DHT22;57634;51.136;17.024;2023-05-10T15:52:48;21.20;33.10
70244;DHT22;57634;51.136;17.024;2023-05-10T15:55:50;21.20;33.30
70244;DHT22;57634;51.136;17.024;2023-05-10T15:58:51;21.20;33.40
70244;DHT22;57634;51.136;17.024;2023-05-10T16:01:52;21.20;33.60
70244;DHT22;57634;51.136;17.024;2023-05-10T16:04:53;21.10;33.50
70244;DHT22;57634;51.136;17.024;2023-05-10T16:07:55;21.10;33.50
70244;DHT22;57634;51.136;17.024;2023-05-10T16:10:56;21.10;33.70
70244;DHT22;57634;51.136;17.024;2023-05-10T16:13:57;21.10;33.50
70244;DHT22;57634;51.136;17.024;2023-05-10T16:16:58;21.10;33.60
70244;DHT22;57634;51.136;17.024;2023-05-10T16:19:59;21.00;33.70
70244;DHT22;57634;51.136;17.024;2023-05-10T16:23:03;21.00;33.60
70244;DHT22;57634;51.136;17.024;2023-05-10T16:26:32;21.00;33.70
70244;DHT22;57634;51.136;17.024;2023-05-10T16:29:40;21.10;33.90
70244;DHT22;57634;51.136;17.024;2023-05-10T16:32:42;21.10;33.80
70244;DHT22;57634;51.136;17.024;2023-05-10T16:35:43;21.10;33.30
70244;DHT22;57634;51.136;17.024;2023-05-10T16:38:44;21.10;33.20
70244;DHT22;57634;51.136;17.024;2023-05-10T16:41:46;21.10;33.40
70244;DHT22;57634;51.136;17.024;2023-05-10T16:44:47;21.10;33.20
70244;DHT22;57634;51.136;17.024;2023-05-10T16:47:48;21.10;33.20
70244;DHT22;57634;51.136;17.024;2023-05-10T16:50:49;21.10;33.40
70244;DHT22;57634;51.136;17.024;2023-05-10T16:53:52;21.00;33.40
70244;DHT22;57634;51.136;17.024;2023-05-10T16:56:53;21.00;33.60
70244;DHT22;57634;51.136;17.024;2023-05-10T16:59:54;20.90;33.90
70244;DHT22;57634;51.136;17.024;2023-05-10T17:02:56;20.80;34.00
70244;DHT22;57634;51.136;17.024;2023-05-10T17:06:22;20.80;34.00
70244;DHT22;57634;51.136;17.024;2023-05-10T17:09:23;20.70;34.00
70244;DHT22;57634;51.136;17.024;2023-05-10T17:12:25;20.70;34.30
70244;DHT22;57634;51.136;17.024;2023-05-10T17:15:26;20.70;34.30
70244;DHT22;57634;51.136;17.024;2023-05-10T17:18:30;20.60;34.50
70244;DHT22;57634;51.136;17.024;2023-05-10T17:21:31;20.60;34.60
70244;DHT22;57634;51.136;17.024;2023-05-10T17:24:32;20.50;34.80
70244;DHT22;57634;51.136;17.024;2023-05-10T17:27:34;20.50;35.00
70244;DHT22;57634;51.136;17.024;2023-05-10T17:30:35;20.40;35.30
70244;DHT22;57634;51.136;17.024;2023-05-10T17:33:36;20.30;35.70
70244;DHT22;57634;51.136;17.024;2023-05-10T17:36:38;20.30;35.90
70244;DHT22;57634;51.136;17.024;2023-05-10T17:39:40;20.20;36.00
70244;DHT22;57634;51.136;17.024;2023-05-10T17:42:41;20.20;36.20
70244;DHT22;57634;51.136;17.024;2023-05-10T17:45:42;20.10;36.40
70244;DHT22;57634;51.136;17.024;2023-05-10T17:49:12;20.10;36.70
70244;DHT22;57634;51.136;17.024;2023-05-10T17:52:13;20.00;37.00
70244;DHT22;57634;51.136;17.024;2023-05-10T17:55:14;20.00;37.20
70244;DHT22;57634;51.136;17.024;2023-05-10T17:58:16;19.90;37.40
70244;DHT22;57634;51.136;17.024;2023-05-10T18:01:17;19.90;37.70
70244;DHT22;57634;51.136;17.024;2023-05-10T18:04:21;19.90;37.80
70244;DHT22;57634;51.136;17.024;2023-05-10T18:07:22;19.90;38.00
70244;DHT22;57634;51.136;17.024;2023-05-10T18:10:26;19.80;38.10
70244;DHT22;57634;51.136;17.024;2023-05-10T18:13:27;19.80;38.30
70244;DHT22;57634;51.136;17.024;2023-05-10T18:16:28;19.80;38.50
70244;DHT22;57634;51.136;17.024;2023-05-10T18:19:29;19.70;38.70
70244;DHT22;57634;51.136;17.024;2023-05-10T18:22:36;19.70;38.90
70244;DHT22;57634;51.136;17.024;2023-05-10T18:25:37;19.60;39.00
70244;DHT22;57634;51.136;17.024;2023-05-10T18:29:04;19.60;39.20
70244;DHT22;57634;51.136;17.024;2023-05-10T18:32:05;19.60;39.40
70244;DHT22;57634;51.136;17.024;2023-05-10T18:35:08;19.50;39.60
70244;DHT22;57634;51.136;17.024;2023-05-10T18:38:11;19.40;39.80
70244;DHT22;57634;51.136;17.024;2023-05-10T18:41:13;19.30;39.90
70244;DHT22;57634;51.136;17.024;2023-05-10T18:44:15;19.30;40.00
70244;DHT22;57634;51.136;17.024;2023-05-10T18:47:16;19.20;40.10
70244;DHT22;57634;51.136;17.024;2023-05-10T18:50:18;19.20;40.30
70244;DHT22;57634;51.136;17.024;2023-05-10T18:53:19;19.20;40.30
70244;DHT22;57634;51.136;17.024;2023-05-10T18:56:20;19.10;40.40
70244;DHT22;57634;51.136;17.024;2023-05-10T18:59:24;19.00;40.40
70244;DHT22;57634;51.136;17.024;2023-05-10T19:02:27;19.00;40.60
70244;DHT22;57634;51.136;17.024;2023-05-10T19:05:28;19.00;40.70
70244;DHT22;57634;51.136;17.024;2023-05-10T19:08:57;19.00;40.80
70244;DHT22;57634;51.136;17.024;2023-05-10T19:11:58;19.00;41.00
70244;DHT22;57634;51.136;17.024;2023-05-10T19:14:59;18.90;41.20
70244;DHT22;57634;51.136;17.024;2023-05-10T19:18:01;18.90;41.40
70244;DHT22;57634;51.136;17.024;2023-05-10T19:21:03;18.80;41.40
70244;DHT22;57634;51.136;17.024;2023-05-10T19:24:09;18.80;41.50
70244;DHT22;57634;51.136;17.024;2023-05-10T19:27:10;18.80;41.70
70244;DHT22;57634;51.136;17.024;2023-05-10T19:30:12;18.70;41.60
70244;DHT22;57634;51.136;17.024;2023-05-10T19:33:13;18.70;41.80
70244;DHT22;57634;51.136;17.024;2023-05-10T19:36:15;18.60;41.90
70244;DHT22;57634;51.136;17.024;2023-05-10T19:39:16;18.50;42.10
70244;DHT22;57634;51.136;17.024;2023-05-10T19:42:18;18.50;42.40
70244;DHT22;57634;51.136;17.024;2023-05-10T19:45:20;18.40;42.50
70244;DHT22;57634;51.136;17.024;2023-05-10T19:48:49;18.40;42.70